sensor_id;sensor_type;location;lat;lon;timestamp;pressure;altitude;pressure_sealevel;temperature;humidity
36964;BME280;22878;48.616;35.326;2024-01-30T16:26:45;102989.63;;;13.54;54.43
36964;BME280;22878;48.616;35.326;2024-01-30T16:29:12;102986.79;;;12.73;49.36
36964;BME280;22878;48.616;35.326;2024-01-30T16:31:37;102984.02;;;11.99;48.48
36964;BME280;22878;48.616;35.326;2024-01-30T16:34:03;102985.14;;;11.39;49.87
36964;BME280;22878;48.616;35.326;2024-01-30T16:36:28;102979.45;;;11.29;54.91
36964;BME280;22878;48.616;35.326;2024-01-30T16:38:54;102981.54;;;11.42;57.91
36964;BME280;22878;48.616;35.326;2024-01-30T16:41:21;102978.33;;;11.55;59.19
36964;BME280;22878;48.616;35.326;2024-01-30T16:43:46;102976.09;;;11.68;60.72
36964;BME280;22878;48.616;35.326;2024-01-30T16:46:11;102976.02;;;11.78;60.58
36964;BME280;22878;48.616;35.326;2024-01-30T16:48:37;102973.98;;;11.85;60.81
36964;BME280;22878;48.616;35.326;2024-01-30T16:51:03;102973.20;;;11.92;61.11
36964;BME280;22878;48.616;35.326;2024-01-30T16:53:34;102966.82;;;11.99;61.34
36964;BME280;22878;48.616;35.326;2024-01-30T16:56:01;102961.91;;;12.06;61.62
36964;BME280;22878;48.616;35.326;2024-01-30T16:58:27;102962.64;;;12.14;62.38
36964;BME280;22878;48.616;35.326;2024-01-30T17:00:52;102958.86;;;12.23;63.13
36964;BME280;22878;48.616;35.326;2024-01-30T17:03:18;102964.13;;;12.30;63.85
36964;BME280;22878;48.616;35.326;2024-01-30T17:05:43;102961.98;;;12.38;64.56
36964;BME280;22878;48.616;35.326;2024-01-30T17:08:09;102961.46;;;12.44;65.30
36964;BME280;22878;48.616;35.326;2024-01-30T17:10:34;102955.45;;;12.50;66.11
36964;BME280;22878;48.616;35.326;2024-01-30T17:13:00;102956.42;;;12.56;66.49
36964;BME280;22878;48.616;35.326;2024-01-30T17:15:26;102956.98;;;12.62;67.18
36964;BME280;22878;48.616;35.326;2024-01-30T17:17:51;102955.08;;;12.68;67.80
36964;BME280;22878;48.616;35.326;2024-01-30T17:20:19;102957.21;;;12.73;68.03
36964;BME280;22878;48.616;35.326;2024-01-30T17:22:45;102954.08;;;12.77;67.67
36964;BME280;22878;48.616;35.326;2024-01-30T17:25:11;102959.11;;;12.79;67.21
36964;BME280;22878;48.616;35.326;2024-01-30T17:27:36;102955.59;;;12.81;67.01
36964;BME280;22878;48.616;35.326;2024-01-30T17:30:03;102953.88;;;12.83;67.03
36964;BME280;22878;48.616;35.326;2024-01-30T17:32:30;102949.09;;;12.85;66.98
36964;BME280;22878;48.616;35.326;2024-01-30T17:34:56;102952.02;;;12.77;60.50
36964;BME280;22878;48.616;35.326;2024-01-30T17:37:22;102954.13;;;12.48;56.66
36964;BME280;22878;48.616;35.326;2024-01-30T17:39:48;102954.81;;;12.15;54.83
36964;BME280;22878;48.616;35.326;2024-01-30T17:42:13;102949.16;;;11.87;54.11
36964;BME280;22878;48.616;35.326;2024-01-30T17:44:39;102946.45;;;11.79;56.29
36964;BME280;22878;48.616;35.326;2024-01-30T17:47:05;102945.05;;;11.90;58.80
36964;BME280;22878;48.616;35.326;2024-01-30T17:49:33;102945.05;;;12.01;59.68
36964;BME280;22878;48.616;35.326;2024-01-30T17:55:29;102941.73;;;12.25;59.45
36964;BME280;22878;48.616;35.326;2024-01-30T17:57:55;102941.27;;;12.34;59.48
36964;BME280;22878;48.616;35.326;2024-01-30T18:00:21;102936.02;;;12.41;59.33
36964;BME280;22878;48.616;35.326;2024-01-30T18:02:47;102929.42;;;12.45;59.19
36964;BME280;22878;48.616;35.326;2024-01-30T18:05:13;102926.33;;;12.49;59.10
36964;BME280;22878;48.616;35.326;2024-01-30T18:07:38;102925.52;;;12.53;58.97
36964;BME280;22878;48.616;35.326;2024-01-30T18:10:05;102926.30;;;12.55;58.89
36964;BME280;22878;48.616;35.326;2024-01-30T18:12:31;102932.92;;;12.57;58.78
36964;BME280;22878;48.616;35.326;2024-01-30T18:14:56;102929.48;;;12.59;58.68
36964;BME280;22878;48.616;35.326;2024-01-30T18:17:22;102930.35;;;12.60;58.61
36964;BME280;22878;48.616;35.326;2024-01-30T18:19:48;102929.23;;;12.62;58.61
36964;BME280;22878;48.616;35.326;2024-01-30T18:22:13;102929.05;;;12.63;58.54
36964;BME280;22878;48.616;35.326;2024-01-30T18:24:39;102925.33;;;12.64;58.42
36964;BME280;22878;48.616;35.326;2024-01-30T18:27:04;102922.39;;;12.65;58.41
36964;BME280;22878;48.616;35.326;2024-01-30T18:29:30;102924.48;;;12.65;58.38
36964;BME280;22878;48.616;35.326;2024-01-30T18:31:56;102923.18;;;12.65;58.29
36964;BME280;22878;48.616;35.326;2024-01-30T18:34:21;102919.77;;;12.65;58.25
36964;BME280;22878;48.616;35.326;2024-01-30T18:36:47;102915.22;;;12.65;58.20
36964;BME280;22878;48.616;35.326;2024-01-30T18:39:12;102909.35;;;12.66;58.14
36964;BME280;22878;48.616;35.326;2024-01-30T18:41:38;102911.60;;;12.65;58.10
36964;BME280;22878;48.616;35.326;2024-01-30T18:44:04;102911.44;;;12.65;58.05
36964;BME280;22878;48.616;35.326;2024-01-30T18:46:30;102914.20;;;12.65;58.05
36964;BME280;22878;48.616;35.326;2024-01-30T18:48:56;102917.77;;;12.65;58.01
36964;BME280;22878;48.616;35.326;2024-01-30T18:51:22;102921.22;;;12.65;57.95
36964;BME280;22878;48.616;35.326;2024-01-30T18:53:47;102918.21;;;12.64;57.95
36964;BME280;22878;48.616;35.326;2024-01-30T18:56:13;102921.42;;;12.65;57.99
36964;BME280;22878;48.616;35.326;2024-01-30T18:58:41;102914.14;;;12.64;57.95
36964;BME280;22878;48.616;35.326;2024-01-30T19:01:07;102908.14;;;12.64;57.96
36964;BME280;22878;48.616;35.326;2024-01-30T19:03:50;102906.15;;;12.66;57.80
36964;BME280;22878;48.616;35.326;2024-01-30T19:06:16;102904.77;;;12.64;57.85
36964;BME280;22878;48.616;35.326;2024-01-30T19:08:42;102902.87;;;12.64;57.83
36964;BME280;22878;48.616;35.326;2024-01-30T19:11:17;102897.13;;;12.63;57.72
36964;BME280;22878;48.616;35.326;2024-01-30T19:13:44;102894.42;;;12.63;57.72
36964;BME280;22878;48.616;35.326;2024-01-30T19:16:09;102895.21;;;12.63;57.72
36964;BME280;22878;48.616;35.326;2024-01-30T19:18:35;102896.94;;;12.62;57.75
36964;BME280;22878;48.616;35.326;2024-01-30T19:21:00;102891.02;;;12.62;57.66
36964;BME280;22878;48.616;35.326;2024-01-30T19:23:27;102890.06;;;12.61;57.63
36964;BME280;22878;48.616;35.326;2024-01-30T19:25:52;102890.65;;;12.61;57.65
36964;BME280;22878;48.616;35.326;2024-01-30T19:28:18;102894.78;;;12.59;57.59
36964;BME280;22878;48.616;35.326;2024-01-30T19:30:43;102888.48;;;12.59;57.57
36964;BME280;22878;48.616;35.326;2024-01-30T19:33:09;102888.02;;;12.59;57.62
36964;BME280;22878;48.616;35.326;2024-01-30T19:35:34;102883.95;;;12.58;57.53
36964;BME280;22878;48.616;35.326;2024-01-30T19:41:32;102874.63;;;12.60;57.43
36964;BME280;22878;48.616;35.326;2024-01-30T19:43:57;102871.59;;;12.59;57.42
36964;BME280;22878;48.616;35.326;2024-01-30T19:46:23;102872.14;;;12.60;57.36
36964;BME280;22878;48.616;35.326;2024-01-30T19:48:48;102873.48;;;12.60;57.38
36964;BME280;22878;48.616;35.326;2024-01-30T19:51:14;102875.34;;;12.59;57.39
36964;BME280;22878;48.616;35.326;2024-01-30T19:53:39;102873.59;;;12.59;57.29
36964;BME280;22878;48.616;35.326;2024-01-30T19:56:05;102871.07;;;12.58;57.26
36964;BME280;22878;48.616;35.326;2024-01-30T19:58:30;102861.66;;;12.57;57.25
36964;BME280;22878;48.616;35.326;2024-01-30T20:00:56;102862.88;;;12.56;57.28
36964;BME280;22878;48.616;35.326;2024-01-30T20:03:22;102855.98;;;12.55;57.15
36964;BME280;22878;48.616;35.326;2024-01-30T20:06:04;102859.17;;;12.57;57.10
36964;BME280;22878;48.616;35.326;2024-01-30T20:08:30;102858.53;;;12.53;57.12
36964;BME280;22878;48.616;35.326;2024-01-30T20:10:58;102861.45;;;12.53;57.17
36964;BME280;22878;48.616;35.326;2024-01-30T20:13:24;102864.39;;;12.53;57.15
36964;BME280;22878;48.616;35.326;2024-01-30T20:15:49;102862.52;;;12.52;57.15
36964;BME280;22878;48.616;35.326;2024-01-30T20:18:16;102863.54;;;12.51;57.13
36964;BME280;22878;48.616;35.326;2024-01-30T20:20:42;102858.10;;;12.50;57.08
36964;BME280;22878;48.616;35.326;2024-01-30T20:23:09;102865.13;;;12.50;57.17
36964;BME280;22878;48.616;35.326;2024-01-30T20:25:34;102863.71;;;12.50;57.04
36964;BME280;22878;48.616;35.326;2024-01-30T20:28:00;102860.79;;;12.48;57.05
36964;BME280;22878;48.616;35.326;2024-01-30T20:30:25;102857.98;;;12.48;57.15
36964;BME280;22878;48.616;35.326;2024-01-30T20:32:51;102857.92;;;12.47;57.10
36964;BME280;22878;48.616;35.326;2024-01-30T20:35:17;102857.89;;;12.46;57.06
36964;BME280;22878;48.616;35.326;2024-01-30T20:37:42;102857.14;;;12.46;56.98
36964;BME280;22878;48.616;35.326;2024-01-30T20:40:08;102854.37;;;12.46;57.03
36964;BME280;22878;48.616;35.326;2024-01-30T20:42:34;102856.78;;;12.45;57.04
36964;BME280;22878;48.616;35.326;2024-01-30T20:45:01;102854.77;;;12.45;57.01
36964;BME280;22878;48.616;35.326;2024-01-30T20:47:28;102855.83;;;12.44;57.01
36964;BME280;22878;48.616;35.326;2024-01-30T20:49:54;102852.79;;;12.44;57.00
36964;BME280;22878;48.616;35.326;2024-01-30T20:52:19;102850.05;;;12.43;56.94
36964;BME280;22878;48.616;35.326;2024-01-30T20:54:45;102845.44;;;12.42;56.89
36964;BME280;22878;48.616;35.326;2024-01-30T20:57:11;102842.45;;;12.42;56.88
36964;BME280;22878;48.616;35.326;2024-01-30T20:59:36;102841.03;;;12.42;56.90
36964;BME280;22878;48.616;35.326;2024-01-30T21:02:02;102840.11;;;12.41;56.81
36964;BME280;22878;48.616;35.326;2024-01-30T21:04:27;102833.50;;;12.40;56.86
36964;BME280;22878;48.616;35.326;2024-01-30T21:06:53;102830.19;;;12.39;56.89
36964;BME280;22878;48.616;35.326;2024-01-30T21:09:18;102835.48;;;12.39;56.85
36964;BME280;22878;48.616;35.326;2024-01-30T21:11:44;102833.73;;;12.39;56.81
36964;BME280;22878;48.616;35.326;2024-01-30T21:14:09;102830.40;;;12.38;56.83
36964;BME280;22878;48.616;35.326;2024-01-30T21:16:35;102839.96;;;12.38;56.87
36964;BME280;22878;48.616;35.326;2024-01-30T21:19:01;102838.92;;;12.38;56.73
36964;BME280;22878;48.616;35.326;2024-01-30T21:21:26;102840.27;;;12.37;56.75
36964;BME280;22878;48.616;35.326;2024-01-30T21:23:54;102840.61;;;12.36;56.75
36964;BME280;22878;48.616;35.326;2024-01-30T21:26:20;102836.56;;;12.35;56.71
36964;BME280;22878;48.616;35.326;2024-01-30T21:28:45;102836.77;;;12.35;56.74
36964;BME280;22878;48.616;35.326;2024-01-30T21:31:11;102837.95;;;12.34;56.70
36964;BME280;22878;48.616;35.326;2024-01-30T21:33:39;102835.50;;;12.34;56.69
36964;BME280;22878;48.616;35.326;2024-01-30T21:36:05;102831.34;;;12.32;56.64
36964;BME280;22878;48.616;35.326;2024-01-30T21:42:03;102829.33;;;12.35;56.62
36964;BME280;22878;48.616;35.326;2024-01-30T21:44:29;102834.45;;;12.35;56.57
36964;BME280;22878;48.616;35.326;2024-01-30T21:46:54;102834.40;;;12.35;56.56
36964;BME280;22878;48.616;35.326;2024-01-30T21:49:20;102836.19;;;12.35;56.56
36964;BME280;22878;48.616;35.326;2024-01-30T21:51:45;102832.95;;;12.35;56.51
36964;BME280;22878;48.616;35.326;2024-01-30T21:54:11;102833.23;;;12.34;56.57
36964;BME280;22878;48.616;35.326;2024-01-30T21:56:37;102834.75;;;12.34;56.57
36964;BME280;22878;48.616;35.326;2024-01-30T21:59:05;102838.13;;;12.33;56.54
36964;BME280;22878;48.616;35.326;2024-01-30T22:01:31;102841.99;;;12.32;56.65
36964;BME280;22878;48.616;35.326;2024-01-30T22:03:56;102845.19;;;12.32;56.49
36964;BME280;22878;48.616;35.326;2024-01-30T22:06:24;102846.42;;;12.30;56.47
36964;BME280;22878;48.616;35.326;2024-01-30T22:08:49;102848.46;;;12.30;56.45
36964;BME280;22878;48.616;35.326;2024-01-30T22:11:15;102845.38;;;12.29;56.50
36964;BME280;22878;48.616;35.326;2024-01-30T22:13:40;102847.84;;;12.28;56.52
36964;BME280;22878;48.616;35.326;2024-01-30T22:16:06;102844.19;;;12.27;56.47
36964;BME280;22878;48.616;35.326;2024-01-30T22:18:31;102843.56;;;12.26;56.44
36964;BME280;22878;48.616;35.326;2024-01-30T22:20:57;102844.52;;;12.26;56.47
36964;BME280;22878;48.616;35.326;2024-01-30T22:23:22;102844.53;;;12.24;56.46
36964;BME280;22878;48.616;35.326;2024-01-30T22:25:48;102844.58;;;12.25;56.44
36964;BME280;22878;48.616;35.326;2024-01-30T22:28:15;102848.19;;;12.25;56.46
36964;BME280;22878;48.616;35.326;2024-01-30T22:30:40;102844.45;;;12.25;56.39
36964;BME280;22878;48.616;35.326;2024-01-30T22:33:06;102840.21;;;12.24;56.44
36964;BME280;22878;48.616;35.326;2024-01-30T22:35:34;102835.42;;;12.24;56.38
36964;BME280;22878;48.616;35.326;2024-01-30T22:38:00;102837.75;;;12.24;56.46
36964;BME280;22878;48.616;35.326;2024-01-30T22:40:26;102838.50;;;12.24;56.36
36964;BME280;22878;48.616;35.326;2024-01-30T22:42:51;102839.92;;;12.23;56.38
36964;BME280;22878;48.616;35.326;2024-01-30T22:45:19;102846.79;;;12.22;56.30
36964;BME280;22878;48.616;35.326;2024-01-30T22:47:44;102845.25;;;12.22;56.36
36964;BME280;22878;48.616;35.326;2024-01-30T22:50:10;102842.85;;;12.21;56.28
36964;BME280;22878;48.616;35.326;2024-01-30T22:52:35;102837.70;;;12.21;56.35
36964;BME280;22878;48.616;35.326;2024-01-30T22:55:01;102836.89;;;12.20;56.39
36964;BME280;22878;48.616;35.326;2024-01-30T22:57:27;102836.54;;;12.19;56.41
36964;BME280;22878;48.616;35.326;2024-01-30T22:59:52;102835.96;;;12.18;56.32
36964;BME280;22878;48.616;35.326;2024-01-30T23:02:18;102831.58;;;12.17;56.32
36964;BME280;22878;48.616;35.326;2024-01-30T23:04:43;102834.98;;;12.16;56.30
36964;BME280;22878;48.616;35.326;2024-01-30T23:07:08;102835.44;;;12.15;56.29
36964;BME280;22878;48.616;35.326;2024-01-30T23:09:34;102837.09;;;12.14;56.39
36964;BME280;22878;48.616;35.326;2024-01-30T23:11:59;102833.69;;;12.15;56.38
36964;BME280;22878;48.616;35.326;2024-01-30T23:14:25;102828.95;;;12.14;56.33
36964;BME280;22878;48.616;35.326;2024-01-30T23:16:50;102827.04;;;12.13;56.34
36964;BME280;22878;48.616;35.326;2024-01-30T23:19:16;102824.38;;;12.13;56.32
36964;BME280;22878;48.616;35.326;2024-01-30T23:21:41;102821.52;;;12.13;56.35
36964;BME280;22878;48.616;35.326;2024-01-30T23:24:06;102821.59;;;12.12;56.30
36964;BME280;22878;48.616;35.326;2024-01-30T23:26:32;102818.14;;;12.11;56.41
36964;BME280;22878;48.616;35.326;2024-01-30T23:28:57;102818.52;;;12.11;56.37
36964;BME280;22878;48.616;35.326;2024-01-30T23:31:23;102817.41;;;12.10;56.29
36964;BME280;22878;48.616;35.326;2024-01-30T23:33:49;102817.83;;;12.10;56.30
36964;BME280;22878;48.616;35.326;2024-01-30T23:36:14;102819.36;;;12.09;56.23
36964;BME280;22878;48.616;35.326;2024-01-30T23:38:40;102816.90;;;12.08;56.27
36964;BME280;22878;48.616;35.326;2024-01-30T23:41:05;102812.84;;;12.08;56.31
36964;BME280;22878;48.616;35.326;2024-01-30T23:43:31;102811.67;;;12.07;56.26
36964;BME280;22878;48.616;35.326;2024-01-30T23:45:57;102808.02;;;12.06;56.28
36964;BME280;22878;48.616;35.326;2024-01-30T23:48:22;102811.81;;;12.06;56.29
36964;BME280;22878;48.616;35.326;2024-01-30T23:50:48;102809.14;;;12.05;56.35
36964;BME280;22878;48.616;35.326;2024-01-30T23:53:14;102813.50;;;12.05;56.27
36964;BME280;22878;48.616;35.326;2024-01-30T23:55:40;102814.21;;;12.05;56.28
36964;BME280;22878;48.616;35.326;2024-01-30T23:58:05;102812.19;;;12.04;56.33
